Time;durP1;ratioP1;P1;durP2;ratioP2;P2;SDS_P1;SDS_P2;PMS_P1;PMS_P2;Temp;Humidity;BMP_temperature;BMP_pressure;BME280_temperature;BME280_humidity;BME280_pressure;Samples;Min_cycle;Max_cycle;Signal;HPM_P1;HPM_P2
2022/01/21 00:03:17;;;;;;;7.82;2.95;;;;;;;;;;10191144;29;20083;-68
2022/01/21 00:08:21;;;;;;;8.23;3.17;;;;;;;;;;10191489;29;20088;-68
2022/01/21 00:13:33;;;;;;;5.28;2.45;;;;;;;;;;10189469;29;20359;-68
2022/01/21 00:18:37;;;;;;;9.02;3.33;;;;;;;;;;10203346;29;20213;-68
2022/01/21 00:34:21;;;;;;;11.65;3.50;;;;;;;;;;10179169;29;20496;-68
2022/01/21 00:39:28;;;;;;;19.33;5.05;;;;;;;;;;10179210;29;20059;-68
2022/01/21 00:44:30;;;;;;;11.25;3.22;;;;;;;;;;10209068;29;20044;-68
2022/01/21 00:49:33;;;;;;;10.57;2.97;;;;;;;;;;10196442;29;20059;-68
2022/01/21 00:54:40;;;;;;;9.18;2.53;;;;;;;;;;10196277;29;20071;-68
2022/01/21 00:59:42;;;;;;;13.10;3.45;;;;;;;;;;10208983;29;20315;-68
2022/01/21 01:04:44;;;;;;;7.15;2.53;;;;;;;;;;10164691;29;20067;-68
2022/01/21 01:09:52;;;;;;;7.93;2.60;;;;;;;;;;10187939;29;20075;-68
2022/01/21 01:20:14;;;;;;;8.80;2.40;;;;;;;;;;10208628;29;20395;-68
2022/01/21 01:30:38;;;;;;;10.23;2.40;;;;;;;;;;10173647;29;20079;-68
2022/01/21 01:35:41;;;;;;;7.20;2.20;;;;;;;;;;10193839;29;20130;-68
2022/01/21 01:40:48;;;;;;;8.63;2.58;;;;;;;;;;10194616;29;20051;-67
2022/01/21 01:51:13;;;;;;;6.00;2.53;;;;;;;;;;10207324;29;20108;-68
2022/01/21 01:56:20;;;;;;;9.13;2.85;;;;;;;;;;10190516;29;20044;-68
2022/01/21 02:01:23;;;;;;;5.18;2.70;;;;;;;;;;10164924;29;20052;-68
2022/01/21 02:06:25;;;;;;;8.25;2.83;;;;;;;;;;10194835;29;20062;-68
2022/01/21 02:11:29;;;;;;;6.88;2.58;;;;;;;;;;10159419;29;20092;-68
2022/01/21 02:16:42;;;;;;;6.57;3.15;;;;;;;;;;10154991;29;20087;-68
2022/01/21 02:21:47;;;;;;;4.68;2.70;;;;;;;;;;10196116;29;20311;-68
2022/01/21 02:26:50;;;;;;;;;;;;;;;;;;10206332;29;20089;-68
2022/01/21 02:31:53;;;;;;;8.10;2.20;;;;;;;;;;10193340;29;19926;-67
2022/01/21 02:36:57;;;;;;;4.68;2.58;;;;;;;;;;10165763;29;20068;-68
2022/01/21 02:41:59;;;;;;;5.18;2.40;;;;;;;;;;10157516;29;20040;-68
2022/01/21 02:47:04;;;;;;;3.85;2.40;;;;;;;;;;10192304;29;20359;-68
2022/01/21 02:52:08;;;;;;;4.38;1.92;;;;;;;;;;10192354;29;20052;-68
2022/01/21 02:57:10;;;;;;;4.95;2.00;;;;;;;;;;10192459;29;20391;-68
2022/01/21 03:02:14;;;;;;;5.95;2.00;;;;;;;;;;10185035;29;20060;-68
2022/01/21 03:07:17;;;;;;;5.40;2.42;;;;;;;;;;10160903;29;20060;-67
2022/01/21 03:12:21;;;;;;;3.47;2.17;;;;;;;;;;10152824;29;20052;-68
2022/01/21 03:17:23;;;;;;;4.13;1.90;;;;;;;;;;10162281;29;20099;-68
2022/01/21 03:22:27;;;;;;;7.63;2.60;;;;;;;;;;10152559;29;20044;-68
2022/01/21 03:27:29;;;;;;;5.95;2.00;;;;;;;;;;10176279;29;20055;-68
2022/01/21 03:32:31;;;;;;;4.38;1.90;;;;;;;;;;10189369;29;20407;-68
2022/01/21 03:37:35;;;;;;;11.40;2.17;;;;;;;;;;10189839;29;20063;-68
2022/01/21 03:42:38;;;;;;;4.97;2.22;;;;;;;;;;10179051;29;20242;-69
2022/01/21 03:47:40;;;;;;;4.13;2.45;;;;;;;;;;10154870;29;20064;-68
2022/01/21 03:52:44;;;;;;;5.03;2.30;;;;;;;;;;10175740;29;20048;-68
2022/01/21 03:57:46;;;;;;;5.47;2.13;;;;;;;;;;10194919;29;20285;-68
2022/01/21 04:02:49;;;;;;;7.38;3.13;;;;;;;;;;10196917;29;20052;-68
2022/01/21 04:07:53;;;;;;;8.43;3.35;;;;;;;;;;10199009;29;20096;-67
2022/01/21 04:12:55;;;;;;;9.38;3.03;;;;;;;;;;10197709;29;20075;-68
2022/01/21 04:17:57;;;;;;;3.05;2.30;;;;;;;;;;10198017;29;20087;-68
2022/01/21 04:23:01;;;;;;;4.53;2.30;;;;;;;;;;10198117;29;20044;-68
2022/01/21 04:28:03;;;;;;;8.38;2.83;;;;;;;;;;10197145;29;20362;-68
2022/01/21 04:33:06;;;;;;;9.00;2.88;;;;;;;;;;10197319;29;20068;-68
2022/01/21 04:38:12;;;;;;;12.48;4.65;;;;;;;;;;10158367;29;20045;-68
2022/01/21 04:48:35;;;;;;;8.23;3.40;;;;;;;;;;10194980;29;20059;-68
2022/01/21 04:53:39;;;;;;;13.98;4.63;;;;;;;;;;10167960;29;20045;-68
2022/01/21 04:58:43;;;;;;;8.17;2.93;;;;;;;;;;10172369;29;20169;-68
2022/01/21 05:03:46;;;;;;;9.57;2.88;;;;;;;;;;10197371;29;20052;-68
2022/01/21 05:08:54;;;;;;;10.82;4.35;;;;;;;;;;10194979;29;20063;-68
2022/01/21 05:13:58;;;;;;;11.23;3.38;;;;;;;;;;10201644;29;20048;-68
2022/01/21 05:19:06;;;;;;;7.78;3.95;;;;;;;;;;10156722;29;20068;-68
2022/01/21 05:24:10;;;;;;;36.47;11.23;;;;;;;;;;10180792;29;20068;-67
2022/01/21 05:29:13;;;;;;;31.50;9.50;;;;;;;;;;10156108;29;20221;-68
2022/01/21 05:34:15;;;;;;;18.77;6.10;;;;;;;;;;10193841;29;20072;-67
2022/01/21 05:39:20;;;;;;;21.05;6.68;;;;;;;;;;10193590;29;20091;-68
2022/01/21 05:49:41;;;;;;;12.30;3.42;;;;;;;;;;10192557;29;20052;-68
2022/01/21 05:54:46;;;;;;;9.35;3.65;;;;;;;;;;10178103;29;20061;-68
2022/01/21 05:59:50;;;;;;;10.68;3.78;;;;;;;;;;10154393;29;20044;-67
2022/01/21 06:04:52;;;;;;;12.02;3.88;;;;;;;;;;10190454;29;20074;-68
2022/01/21 06:09:55;;;;;;;11.48;3.92;;;;;;;;;;10156543;29;20053;-68
2022/01/21 06:14:58;;;;;;;9.65;4.03;;;;;;;;;;10191024;29;20092;-68
2022/01/21 06:20:00;;;;;;;12.40;2.95;;;;;;;;;;10192800;29;20143;-68
2022/01/21 06:25:05;;;;;;;14.10;3.38;;;;;;;;;;10192116;29;20052;-68
2022/01/21 06:30:09;;;;;;;11.73;3.35;;;;;;;;;;10191388;29;20328;-68
2022/01/21 06:35:12;;;;;;;8.43;3.17;;;;;;;;;;10167720;29;20056;-68
2022/01/21 06:40:19;;;;;;;11.40;3.53;;;;;;;;;;10186914;29;20072;-67
2022/01/21 06:45:22;;;;;;;8.30;3.05;;;;;;;;;;10205370;29;20044;-67
2022/01/21 06:50:24;;;;;;;9.55;2.60;;;;;;;;;;10191276;29;20376;-67
2022/01/21 06:55:28;;;;;;;9.88;2.83;;;;;;;;;;10191669;29;20086;-67
2022/01/21 07:00:30;;;;;;;7.43;2.90;;;;;;;;;;10192096;29;20340;-68
2022/01/21 07:05:32;;;;;;;14.95;3.15;;;;;;;;;;10189948;29;20109;-68
2022/01/21 07:10:36;;;;;;;11.40;3.20;;;;;;;;;;10190930;29;20100;-67
2022/01/21 07:15:38;;;;;;;16.50;3.70;;;;;;;;;;10190085;29;20323;-67
2022/01/21 07:20:41;;;;;;;9.25;3.15;;;;;;;;;;10190789;29;20299;-69
2022/01/21 07:25:44;;;;;;;10.13;3.53;;;;;;;;;;10193094;29;20064;-66
2022/01/21 07:30:47;;;;;;;10.95;3.28;;;;;;;;;;10191953;29;20044;-68
2022/01/21 07:35:49;;;;;;;10.45;4.15;;;;;;;;;;10201877;29;20427;-65
2022/01/21 07:40:53;;;;;;;9.50;3.85;;;;;;;;;;10203606;29;20092;-67
2022/01/21 07:45:55;;;;;;;11.05;3.30;;;;;;;;;;10177309;29;20044;-68
2022/01/21 07:50:57;;;;;;;11.45;4.00;;;;;;;;;;10197779;29;20075;-67
2022/01/21 07:56:02;;;;;;;15.80;3.72;;;;;;;;;;10197333;29;20047;-67
2022/01/21 08:01:04;;;;;;;9.25;3.25;;;;;;;;;;10199545;29;20355;-67
2022/01/21 08:06:06;;;;;;;7.35;3.55;;;;;;;;;;10200565;29;20076;-67
2022/01/21 08:11:10;;;;;;;11.15;3.80;;;;;;;;;;10203166;29;20298;-67
2022/01/21 08:16:13;;;;;;;6.18;3.00;;;;;;;;;;10201487;29;20111;-67
2022/01/21 08:21:18;;;;;;;8.60;3.25;;;;;;;;;;10204060;29;20355;-67
2022/01/21 08:26:24;;;;;;;10.30;4.40;;;;;;;;;;10214929;29;20056;-67
2022/01/21 08:31:27;;;;;;;9.35;3.75;;;;;;;;;;10202519;29;20052;-70
2022/01/21 08:36:30;;;;;;;7.68;2.85;;;;;;;;;;10202231;29;20072;-67
2022/01/21 08:41:34;;;;;;;5.60;2.83;;;;;;;;;;10201426;29;20411;-67
2022/01/21 08:46:36;;;;;;;3.00;2.13;;;;;;;;;;10193799;29;20392;-69
2022/01/21 08:51:49;;;;;;;5.65;2.40;;;;;;;;;;10197110;29;20301;-69
2022/01/21 08:56:54;;;;;;;3.42;2.53;;;;;;;;;;10208606;29;20048;-69
2022/01/21 09:01:56;;;;;;;5.97;2.97;;;;;;;;;;10195773;29;20052;-69
2022/01/21 09:06:59;;;;;;;8.30;2.70;;;;;;;;;;10193831;29;20387;-70
2022/01/21 09:12:03;;;;;;;10.68;4.07;;;;;;;;;;10194246;29;20052;-67
2022/01/21 09:17:05;;;;;;;13.80;4.50;;;;;;;;;;10199497;29;20059;-71
2022/01/21 09:22:07;;;;;;;13.70;4.22;;;;;;;;;;10196301;29;20044;-69
2022/01/21 09:27:11;;;;;;;14.60;4.75;;;;;;;;;;10182318;29;20343;-69
2022/01/21 09:32:15;;;;;;;11.77;4.03;;;;;;;;;;10175058;29;20245;-67
2022/01/21 09:37:17;;;;;;;11.18;3.63;;;;;;;;;;10191661;29;20127;-68
2022/01/21 09:42:22;;;;;;;14.52;4.50;;;;;;;;;;10196204;29;20044;-68
2022/01/21 09:47:24;;;;;;;14.17;3.20;;;;;;;;;;10195034;29;20102;-68
2022/01/21 09:52:28;;;;;;;14.52;3.80;;;;;;;;;;10195292;29;20044;-68
2022/01/21 09:57:32;;;;;;;5.53;2.30;;;;;;;;;;10196047;29;20071;-69
2022/01/21 10:02:35;;;;;;;5.47;2.72;;;;;;;;;;10191160;29;20048;-68
2022/01/21 10:07:41;;;;;;;9.82;3.50;;;;;;;;;;10195737;29;20055;-68
2022/01/21 10:12:47;;;;;;;10.57;3.22;;;;;;;;;;10174055;29;20049;-68
2022/01/21 10:18:01;;;;;;;7.90;2.90;;;;;;;;;;10179177;29;20048;-69
2022/01/21 10:23:06;;;;;;;10.73;3.22;;;;;;;;;;10190326;29;20056;-67
2022/01/21 10:28:12;;;;;;;10.47;4.43;;;;;;;;;;10193050;29;20063;-69
2022/01/21 10:33:20;;;;;;;6.03;2.90;;;;;;;;;;10192882;29;20071;-70
2022/01/21 10:38:28;;;;;;;9.00;2.90;;;;;;;;;;10204376;29;20059;-69
2022/01/21 10:43:32;;;;;;;11.63;4.55;;;;;;;;;;10192573;29;20048;-68
2022/01/21 10:48:56;;;;;;;6.53;2.50;;;;;;;;;;10191977;29;20264;-68
2022/01/21 10:54:11;;;;;;;10.50;3.55;;;;;;;;;;10192151;29;20048;-69
2022/01/21 10:59:14;;;;;;;11.38;2.90;;;;;;;;;;10203665;29;20063;-68
2022/01/21 11:04:17;;;;;;;6.95;3.13;;;;;;;;;;10186708;29;20236;-69
2022/01/21 11:09:23;;;;;;;18.38;4.50;;;;;;;;;;10182042;29;20359;-69
2022/01/21 11:14:27;;;;;;;6.05;2.60;;;;;;;;;;10203436;29;20166;-69
2022/01/21 11:19:34;;;;;;;9.67;4.30;;;;;;;;;;10192071;29;20332;-67
2022/01/21 11:24:48;;;;;;;7.45;3.08;;;;;;;;;;10191446;29;20055;-69
2022/01/21 11:29:53;;;;;;;10.73;4.47;;;;;;;;;;10191539;29;20063;-68
2022/01/21 11:34:55;;;;;;;10.03;3.67;;;;;;;;;;10191538;29;20056;-67
2022/01/21 11:40:01;;;;;;;9.68;3.45;;;;;;;;;;10191120;29;20056;-69
2022/01/21 11:45:19;;;;;;;24.40;7.93;;;;;;;;;;10191447;29;20052;-69
2022/01/21 11:50:21;;;;;;;33.35;11.32;;;;;;;;;;10203862;29;20633;-67
2022/01/21 11:55:31;;;;;;;8.80;5.13;;;;;;;;;;10192132;29;20052;-67
2022/01/21 12:00:35;;;;;;;11.20;5.18;;;;;;;;;;10191352;29;20044;-68
2022/01/21 12:05:37;;;;;;;10.00;3.08;;;;;;;;;;10190687;29;20044;-68
2022/01/21 12:10:42;;;;;;;9.50;4.05;;;;;;;;;;10190430;29;20267;-68
2022/01/21 12:21:28;;;;;;;5.93;3.30;;;;;;;;;;10211480;29;20036;-69
2022/01/21 12:26:32;;;;;;;8.40;3.05;;;;;;;;;;10199935;29;20051;-69
2022/01/21 12:32:08;;;;;;;3.78;2.53;;;;;;;;;;10186865;29;20112;-69
2022/01/21 12:37:12;;;;;;;7.43;2.38;;;;;;;;;;10196349;29;20283;-68
2022/01/21 12:42:31;;;;;;;5.18;2.10;;;;;;;;;;10199276;29;20059;-70
2022/01/21 12:47:40;;;;;;;4.18;1.88;;;;;;;;;;10198613;29;20382;-67
2022/01/21 12:52:50;;;;;;;5.45;1.90;;;;;;;;;;10211458;29;20359;-69
2022/01/21 12:57:55;;;;;;;4.72;2.33;;;;;;;;;;10212016;29;20055;-68
2022/01/21 13:03:05;;;;;;;4.78;2.28;;;;;;;;;;10208876;29;20055;-67
2022/01/21 13:08:16;;;;;;;6.95;2.40;;;;;;;;;;10171361;29;20100;-69
2022/01/21 13:13:34;;;;;;;9.25;2.25;;;;;;;;;;10178353;29;20044;-70
2022/01/21 13:18:42;;;;;;;3.33;2.08;;;;;;;;;;10210147;29;20146;-69
2022/01/21 13:23:51;;;;;;;6.72;2.78;;;;;;;;;;10208985;29;20044;-67
2022/01/21 13:29:02;;;;;;;5.07;2.70;;;;;;;;;;10209044;29;20280;-69
2022/01/21 13:34:15;;;;;;;8.18;3.22;;;;;;;;;;10198040;29;20059;-70
2022/01/21 13:39:19;;;;;;;5.15;2.50;;;;;;;;;;10209860;29;20051;-70
2022/01/21 13:44:44;;;;;;;3.63;2.50;;;;;;;;;;10196271;29;20063;-68
2022/01/21 13:49:49;;;;;;;9.25;2.70;;;;;;;;;;10191386;29;20127;-69
2022/01/21 13:54:51;;;;;;;4.30;2.23;;;;;;;;;;10196210;29;20048;-69
2022/01/21 13:59:53;;;;;;;8.13;3.00;;;;;;;;;;10195727;29;20092;-70
2022/01/21 14:05:01;;;;;;;5.78;2.85;;;;;;;;;;10195373;29;20043;-69
2022/01/21 14:10:07;;;;;;;9.48;3.00;;;;;;;;;;10194699;29;20047;-69
2022/01/21 14:15:09;;;;;;;9.30;2.40;;;;;;;;;;10207110;29;20051;-69
2022/01/21 14:20:21;;;;;;;11.75;2.55;;;;;;;;;;10195107;29;20047;-69
2022/01/21 14:25:24;;;;;;;8.70;2.78;;;;;;;;;;10206612;29;20099;-68
2022/01/21 14:30:26;;;;;;;5.03;2.78;;;;;;;;;;10193830;29;20224;-68
2022/01/21 14:35:36;;;;;;;5.38;2.97;;;;;;;;;;10194258;29;20111;-68
2022/01/21 14:40:42;;;;;;;11.10;4.03;;;;;;;;;;10206712;29;20044;-71
2022/01/21 14:45:55;;;;;;;14.10;4.25;;;;;;;;;;10206878;29;20051;-68
2022/01/21 14:51:11;;;;;;;17.63;6.50;;;;;;;;;;10206826;29;20351;-70
2022/01/21 14:56:24;;;;;;;13.88;5.72;;;;;;;;;;10206752;29;20056;-69
2022/01/21 15:01:26;;;;;;;16.25;5.20;;;;;;;;;;10193439;29;20100;-69
2022/01/21 15:06:31;;;;;;;12.50;4.85;;;;;;;;;;10193908;29;20063;-69
2022/01/21 15:11:54;;;;;;;14.27;4.85;;;;;;;;;;10194004;29;20052;-68
2022/01/21 15:16:59;;;;;;;18.92;6.60;;;;;;;;;;10193598;29;20347;-70
2022/01/21 15:22:07;;;;;;;62.58;15.82;;;;;;;;;;10193614;29;20048;-71
2022/01/21 15:27:10;;;;;;;36.60;14.23;;;;;;;;;;10198684;29;20072;-70
2022/01/21 15:32:14;;;;;;;19.75;8.40;;;;;;;;;;10180469;29;20044;-69
2022/01/21 15:37:17;;;;;;;15.85;6.13;;;;;;;;;;10206474;29;20048;-69
2022/01/21 15:42:20;;;;;;;14.82;6.40;;;;;;;;;;10193592;29;20052;-69
2022/01/21 15:47:22;;;;;;;13.25;5.57;;;;;;;;;;10192426;29;20052;-70
2022/01/21 15:52:28;;;;;;;14.20;4.90;;;;;;;;;;10195463;29;20061;-68
2022/01/21 15:57:30;;;;;;;15.10;4.85;;;;;;;;;;10213557;29;20059;-69
2022/01/21 16:02:33;;;;;;;15.32;4.88;;;;;;;;;;10200457;29;20387;-70
2022/01/21 16:07:37;;;;;;;20.38;6.10;;;;;;;;;;10200644;29;20040;-70
2022/01/21 16:12:39;;;;;;;28.95;8.93;;;;;;;;;;10198978;29;20040;-69
2022/01/21 16:17:41;;;;;;;21.15;7.45;;;;;;;;;;10199862;29;20055;-69
2022/01/21 16:22:45;;;;;;;17.10;6.70;;;;;;;;;;10199579;29;20075;-68
2022/01/21 16:27:49;;;;;;;14.73;5.85;;;;;;;;;;10198664;29;20249;-67
2022/01/21 16:32:52;;;;;;;12.18;5.25;;;;;;;;;;10198442;29;20356;-69
2022/01/21 16:37:56;;;;;;;17.55;5.60;;;;;;;;;;10198304;29;20079;-70
2022/01/21 16:42:58;;;;;;;16.30;6.10;;;;;;;;;;10198826;29;20064;-69
2022/01/21 16:48:01;;;;;;;13.27;5.78;;;;;;;;;;10197804;29;20048;-69
2022/01/21 16:53:04;;;;;;;15.15;5.28;;;;;;;;;;10198834;29;20044;-68
2022/01/21 16:58:09;;;;;;;12.13;6.55;;;;;;;;;;10197795;29;20060;-69
2022/01/21 17:03:17;;;;;;;17.10;7.20;;;;;;;;;;10197900;29;20251;-70
2022/01/21 17:08:23;;;;;;;13.10;6.38;;;;;;;;;;10197856;29;20055;-69
2022/01/21 17:13:25;;;;;;;17.65;8.95;;;;;;;;;;10210868;29;20131;-70
2022/01/21 17:18:28;;;;;;;22.77;9.48;;;;;;;;;;10170411;29;20060;-69
2022/01/21 17:23:32;;;;;;;14.00;5.75;;;;;;;;;;10191571;29;20048;-71
2022/01/21 17:28:34;;;;;;;12.98;6.43;;;;;;;;;;10197463;29;20048;-71
2022/01/21 17:33:36;;;;;;;14.68;8.38;;;;;;;;;;10196093;29;20060;-74
2022/01/21 17:38:40;;;;;;;16.27;7.80;;;;;;;;;;10190084;29;20095;-72
2022/01/21 17:43:42;;;;;;;13.65;6.93;;;;;;;;;;10197432;29;20048;-71
2022/01/21 17:48:45;;;;;;;13.98;8.00;;;;;;;;;;10196566;29;20055;-71
2022/01/21 17:53:49;;;;;;;20.90;8.00;;;;;;;;;;10195270;29;20044;-69
2022/01/21 17:58:52;;;;;;;23.50;10.70;;;;;;;;;;10195584;29;20225;-69
2022/01/21 18:03:56;;;;;;;17.05;8.13;;;;;;;;;;10195321;29;20063;-69
2022/01/21 18:09:06;;;;;;;17.83;7.03;;;;;;;;;;10195344;29;20036;-69
2022/01/21 18:14:10;;;;;;;17.17;7.50;;;;;;;;;;10176056;29;20059;-71
2022/01/21 18:19:19;;;;;;;13.90;6.72;;;;;;;;;;10196136;29;20075;-69
2022/01/21 18:24:23;;;;;;;15.15;5.57;;;;;;;;;;10167247;29;20244;-70
2022/01/21 18:29:26;;;;;;;13.15;5.47;;;;;;;;;;10191192;29;20047;-69
2022/01/21 18:34:28;;;;;;;106.82;35.03;;;;;;;;;;10192864;29;20374;-70
2022/01/21 18:39:33;;;;;;;77.65;27.35;;;;;;;;;;10193562;29;20048;-69
2022/01/21 18:44:35;;;;;;;34.57;8.37;;;;;;;;;;10190977;29;20083;-68
2022/01/21 18:49:38;;;;;;;14.25;5.40;;;;;;;;;;10164387;29;20311;-70
2022/01/21 18:54:42;;;;;;;10.52;4.70;;;;;;;;;;10158084;29;20051;-68
2022/01/21 18:59:44;;;;;;;13.18;6.82;;;;;;;;;;10190083;29;20056;-69
2022/01/21 19:07:31;;;;;;;15.77;4.55;;;;;;;;;;10680953;27;20368;-70
2022/01/21 19:12:33;;;;;;;22.58;8.38;;;;;;;;;;10428695;27;20052;-70
2022/01/21 19:17:36;;;;;;;51.45;18.63;;;;;;;;;;10540087;28;20044;-69
2022/01/21 19:22:45;;;;;;;27.15;8.93;;;;;;;;;;10508995;28;20049;-70
2022/01/21 19:27:47;;;;;;;45.25;11.45;;;;;;;;;;10542598;28;20049;-70
2022/01/21 19:32:50;;;;;;;19.52;6.07;;;;;;;;;;10509854;28;20042;-69
2022/01/21 19:37:54;;;;;;;70.47;15.40;;;;;;;;;;10509554;28;20048;-69
2022/01/21 19:42:58;;;;;;;32.45;7.82;;;;;;;;;;10534258;28;20082;-69
2022/01/21 19:48:05;;;;;;;19.50;6.30;;;;;;;;;;10533213;28;20095;-68
2022/01/21 19:53:10;;;;;;;26.05;10.73;;;;;;;;;;10522993;28;20056;-68
2022/01/21 19:58:17;;;;;;;31.85;10.57;;;;;;;;;;10506463;28;20229;-67
2022/01/21 20:08:46;;;;;;;30.48;11.43;;;;;;;;;;10507533;28;20049;-67
2022/01/21 20:13:54;;;;;;;35.20;12.40;;;;;;;;;;10536546;28;20059;-70
2022/01/21 20:18:59;;;;;;;27.52;10.20;;;;;;;;;;10496474;28;20055;-68
2022/01/21 20:24:05;;;;;;;27.10;11.60;;;;;;;;;;10479755;28;20060;-69
2022/01/21 20:29:09;;;;;;;31.23;12.23;;;;;;;;;;10484265;28;20053;-69
2022/01/21 20:34:14;;;;;;;39.03;12.93;;;;;;;;;;10479653;28;20291;-68
2022/01/21 20:39:27;;;;;;;29.00;14.93;;;;;;;;;;10479055;28;20046;-68
2022/01/21 20:44:31;;;;;;;38.58;19.63;;;;;;;;;;10491265;28;20059;-67
2022/01/21 20:49:35;;;;;;;36.15;15.50;;;;;;;;;;10477952;28;20045;-70
2022/01/21 20:54:39;;;;;;;42.17;21.13;;;;;;;;;;10477150;28;20051;-70
2022/01/21 20:59:41;;;;;;;37.40;16.38;;;;;;;;;;10476823;28;20099;-67
2022/01/21 21:04:44;;;;;;;37.13;16.58;;;;;;;;;;10477249;28;20053;-69
2022/01/21 21:09:48;;;;;;;30.35;11.93;;;;;;;;;;10458701;28;20057;-69
2022/01/21 21:14:54;;;;;;;35.97;12.32;;;;;;;;;;10475860;28;20084;-68
2022/01/21 21:25:18;;;;;;;42.17;12.82;;;;;;;;;;10530093;28;19923;-67
2022/01/21 21:30:31;;;;;;;37.35;12.68;;;;;;;;;;10476289;28;20059;-69
2022/01/21 23:01:07;;;;;;;9.88;5.00;;;;;;;;;;10350574;28;20057;-68
2022/01/21 23:06:12;;;;;;;12.48;6.28;;;;;;;;;;10346987;28;20077;-68
2022/01/21 23:11:16;;;;;;;26.27;10.45;;;;;;;;;;10452418;28;20056;-68
2022/01/21 23:16:19;;;;;;;28.88;13.15;;;;;;;;;;10491434;28;20051;-68
2022/01/21 23:21:22;;;;;;;31.45;12.77;;;;;;;;;;10478905;28;20049;-69
2022/01/21 23:26:24;;;;;;;28.35;11.77;;;;;;;;;;10473753;28;20057;-69
2022/01/21 23:31:28;;;;;;;23.88;10.30;;;;;;;;;;10473651;28;20071;-69
2022/01/21 23:36:34;;;;;;;28.63;11.75;;;;;;;;;;10473584;28;20083;-69
2022/01/21 23:41:40;;;;;;;21.73;9.55;;;;;;;;;;10480937;28;20044;-69
2022/01/21 23:46:44;;;;;;;17.77;6.97;;;;;;;;;;10505931;28;20048;-67
2022/01/21 23:51:46;;;;;;;18.70;8.20;;;;;;;;;;10476420;28;20041;-67
2022/01/21 23:56:49;;;;;;;20.05;8.70;;;;;;;;;;10480699;28;20131;-68
